Time;durP1;ratioP1;P1;durP2;ratioP2;P2;SDS_P1;SDS_P2;PMS_P1;PMS_P2;Temp;Humidity;BMP_temperature;BMP_pressure;BME280_temperature;BME280_humidity;BME280_pressure;Samples;Min_cycle;Max_cycle;Signal;HPM_P1;HPM_P2
2022/03/21 00:01:25;;;;;;;;;;;;;;;1.17;39.74;101615.69;3143906;28;20321;-70
2022/03/21 00:02:57;;;;;;;;;;;;;;;1.20;39.69;101613.19;3146025;28;20352;-70
2022/03/21 00:04:29;;;;;;;;;;;;;;;1.22;39.78;101614.09;3137183;28;20393;-70
2022/03/21 00:06:00;;;;;;;;;;;;;;;1.24;39.72;101614.09;3146379;28;19925;-70
2022/03/21 00:07:32;;;;;;;;;;;;;;;1.26;39.49;101604.75;3146114;28;19920;-70
2022/03/21 00:09:04;;;;;;;;;;;;;;;1.28;39.60;101595.38;3146696;28;19935;-70
2022/03/21 00:10:34;;;;;;;;;;;;;;;1.28;39.51;101598.81;3137222;28;19925;-70
2022/03/21 00:12:06;;;;;;;;;;;;;;;1.29;39.55;101602.25;3147450;28;20018;-70
2022/03/21 00:13:38;;;;;;;;;;;;;;;1.30;39.47;101596.28;3138215;28;19977;-70
2022/03/21 00:15:11;;;;;;;;;;;;;;;1.31;39.28;101595.47;3140822;28;19924;-70
2022/03/21 00:16:43;;;;;;;;;;;;;;;1.33;39.49;101591.19;3144244;28;19931;-70
2022/03/21 00:18:15;;;;;;;;;;;;;;;1.34;39.43;101595.53;3138486;28;20435;-70
2022/03/21 00:19:48;;;;;;;;;;;;;;;1.36;39.41;101599.84;3146468;28;19928;-70
2022/03/21 00:21:19;;;;;;;;;;;;;;;1.39;39.29;101598.16;3145380;28;19920;-70
2022/03/21 00:22:51;;;;;;;;;;;;;;;1.39;39.58;101590.47;3145655;28;19931;-70
2022/03/21 00:24:22;;;;;;;;;;;;;;;1.40;39.32;101593.09;3145367;28;19921;-70
2022/03/21 00:25:54;;;;;;;;;;;;;;;1.43;39.50;101588.00;3147159;28;19925;-69
2022/03/21 00:27:24;;;;;;;;;;;;;;;1.44;39.38;101586.31;3140895;28;19920;-69
2022/03/21 00:28:56;;;;;;;;;;;;;;;1.47;39.42;101583.78;3143008;28;20042;-70
2022/03/21 00:30:30;;;;;;;;;;;;;;;1.49;39.43;101584.72;3146048;28;19986;-70
2022/03/21 00:32:05;;;;;;;;;;;;;;;1.53;39.40;101581.34;3137659;28;20597;-70
2022/03/21 00:33:37;;;;;;;;;;;;;;;1.53;39.55;101578.78;3146013;28;19990;-70
2022/03/21 00:35:09;;;;;;;;;;;;;;;1.53;39.46;101579.66;3145199;28;19920;-70
2022/03/21 00:36:40;;;;;;;;;;;;;;;1.56;39.40;101577.13;3145947;28;20059;-70
2022/03/21 00:38:14;;;;;;;;;;;;;;;1.57;39.29;101576.31;3145112;28;19993;-70
2022/03/21 00:39:45;;;;;;;;;;;;;;;1.59;39.24;101584.91;3145155;28;20071;-70
2022/03/21 00:41:17;;;;;;;;;;;;;;;1.62;39.28;101588.38;3145271;28;19920;-71
2022/03/21 00:42:57;;;;;;;;;;;;;;;1.61;39.34;101594.34;3146347;28;19924;-70
2022/03/21 00:44:29;;;;;;;;;;;;;;;1.61;39.41;101602.06;3143044;28;19928;-70
2022/03/21 00:46:02;;;;;;;;;;;;;;;1.63;39.50;101591.00;3143930;28;20020;-71
2022/03/21 00:47:33;;;;;;;;;;;;;;;1.65;39.46;101585.88;3138561;28;19925;-71
2022/03/21 00:49:08;;;;;;;;;;;;;;;1.66;39.33;101577.34;3145135;28;19951;-71
2022/03/21 00:50:40;;;;;;;;;;;;;;;1.66;39.48;101583.34;3149808;28;19924;-71
2022/03/21 00:52:10;;;;;;;;;;;;;;;1.68;39.31;101580.78;3142966;28;19988;-71
2022/03/21 00:53:42;;;;;;;;;;;;;;;1.70;39.53;101576.56;3146060;28;20014;-73
2022/03/21 00:55:13;;;;;;;;;;;;;;;1.73;39.41;101581.75;3144883;28;20405;-72
2022/03/21 00:56:45;;;;;;;;;;;;;;;1.75;39.45;101580.09;3145798;28;19924;-70
2022/03/21 00:58:17;;;;;;;;;;;;;;;1.78;39.35;101575.00;3144716;28;19924;-70
2022/03/21 00:59:47;;;;;;;;;;;;;;;1.81;39.29;101572.50;3143596;28;19920;-70
2022/03/21 01:01:20;;;;;;;;;;;;;;;1.82;39.46;101576.78;3141777;28;19924;-71
2022/03/21 01:02:52;;;;;;;;;;;;;;;1.84;39.40;101570.00;3144305;28;19990;-70
2022/03/21 01:04:24;;;;;;;;;;;;;;;1.85;39.26;101560.56;3144803;28;19928;-70
2022/03/21 01:05:55;;;;;;;;;;;;;;;1.86;39.26;101558.03;3144764;28;19924;-70
2022/03/21 01:07:26;;;;;;;;;;;;;;;1.87;39.45;101564.91;3139022;28;20317;-70
2022/03/21 01:08:58;;;;;;;;;;;;;;;1.90;39.31;101564.97;3144204;28;19921;-70
2022/03/21 01:10:30;;;;;;;;;;;;;;;1.90;39.50;101554.69;3140496;28;19921;-70
2022/03/21 01:12:03;;;;;;;;;;;;;;;1.90;39.36;101554.69;3144790;28;19921;-70
2022/03/21 01:13:41;;;;;;;;;;;;;;;1.93;39.41;101564.16;3139201;28;20070;-70
2022/03/21 01:15:14;;;;;;;;;;;;;;;1.93;39.22;101559.03;3144564;28;19920;-70
2022/03/21 01:16:47;;;;;;;;;;;;;;;1.92;39.19;101558.13;3145780;28;19928;-69
2022/03/21 01:18:21;;;;;;;;;;;;;;;1.95;39.18;101560.78;3144549;28;19924;-69
2022/03/21 01:20:00;;;;;;;;;;;;;;;1.97;39.13;101560.81;3144749;28;20011;-69
2022/03/21 01:21:42;;;;;;;;;;;;;;;1.99;39.28;101552.28;3145639;28;19920;-70
2022/03/21 01:23:13;;;;;;;;;;;;;;;2.01;39.00;101555.75;3147385;28;19994;-69
2022/03/21 01:24:45;;;;;;;;;;;;;;;2.02;38.86;101554.06;3132945;28;19925;-69
2022/03/21 01:26:17;;;;;;;;;;;;;;;2.03;39.00;101551.50;3140389;28;19921;-70
2022/03/21 01:27:48;;;;;;;;;;;;;;;2.04;38.76;101550.69;3145082;28;19931;-70
2022/03/21 01:29:20;;;;;;;;;;;;;;;2.07;38.65;101546.41;3145023;28;19931;-70
2022/03/21 01:30:52;;;;;;;;;;;;;;;2.08;38.61;101551.59;3141475;28;19920;-69
2022/03/21 01:32:25;;;;;;;;;;;;;;;2.10;38.72;101546.47;3134188;28;19940;-70
2022/03/21 01:33:56;;;;;;;;;;;;;;;2.12;38.63;101537.94;3145054;28;19920;-70
2022/03/21 01:35:28;;;;;;;;;;;;;;;2.16;38.51;101541.41;3144701;28;19921;-70
2022/03/21 01:36:59;;;;;;;;;;;;;;;2.18;38.64;101539.75;3141717;28;19924;-70
2022/03/21 01:38:31;;;;;;;;;;;;;;;2.19;38.40;101544.03;3144715;28;19920;-70
2022/03/21 01:40:03;;;;;;;;;;;;;;;2.21;38.36;101543.22;3144955;28;20317;-70
2022/03/21 01:41:35;;;;;;;;;;;;;;;2.24;38.43;101545.00;3141581;28;19931;-71
2022/03/21 01:43:09;;;;;;;;;;;;;;;2.25;38.35;101541.59;3144963;28;19974;-71
2022/03/21 01:44:41;;;;;;;;;;;;;;;2.27;38.35;101540.75;3145096;28;19920;-70
2022/03/21 01:46:12;;;;;;;;;;;;;;;2.28;38.41;101537.38;3144336;28;19921;-70
2022/03/21 01:47:46;;;;;;;;;;;;;;;2.31;38.34;101536.56;3145254;28;19924;-70
2022/03/21 01:49:18;;;;;;;;;;;;;;;2.31;38.44;101539.13;3144445;28;19920;-70
2022/03/21 01:50:49;;;;;;;;;;;;;;;2.33;38.29;101539.13;3144908;28;20326;-70
2022/03/21 01:52:22;;;;;;;;;;;;;;;2.34;38.37;101543.44;3144136;28;20681;-70
2022/03/21 01:55:45;;;;;;;;;;;;;;;2.34;38.38;101525.44;3137318;28;20007;-70
2022/03/21 01:57:17;;;;;;;;;;;;;;;2.35;38.49;101527.19;3144454;28;19932;-69
2022/03/21 01:58:47;;;;;;;;;;;;;;;2.35;38.40;101528.03;3143673;28;20479;-68
2022/03/21 02:00:19;;;;;;;;;;;;;;;2.37;38.62;101526.38;3144239;28;19924;-69
2022/03/21 02:01:51;;;;;;;;;;;;;;;2.38;38.54;101527.22;3145203;28;19997;-69
2022/03/21 02:03:24;;;;;;;;;;;;;;;2.38;38.56;101520.38;3144082;28;19920;-70
2022/03/21 02:04:55;;;;;;;;;;;;;;;2.40;38.55;101523.00;3148531;28;19924;-69
2022/03/21 02:06:28;;;;;;;;;;;;;;;2.39;38.70;101524.66;3143939;28;19927;-69
2022/03/21 02:08:00;;;;;;;;;;;;;;;2.40;38.50;101516.13;3144580;28;19993;-68
2022/03/21 02:09:32;;;;;;;;;;;;;;;2.41;38.59;101517.84;3140585;28;19921;-69
2022/03/21 02:11:03;;;;;;;;;;;;;;;2.42;38.67;101519.56;3138277;28;19929;-69
2022/03/21 02:12:35;;;;;;;;;;;;;;;2.42;38.63;101527.28;3144213;28;19924;-69
2022/03/21 02:14:08;;;;;;;;;;;;;;;2.43;38.65;101526.47;3144589;28;19921;-68
2022/03/21 02:15:39;;;;;;;;;;;;;;;2.42;38.79;101524.72;3144421;28;20378;-68
2022/03/21 02:17:13;;;;;;;;;;;;;;;2.42;38.75;101527.28;3144060;28;19921;-68
2022/03/21 02:18:46;;;;;;;;;;;;;;;2.41;38.66;101523.00;3138468;28;19996;-69
2022/03/21 02:20:18;;;;;;;;;;;;;;;2.41;38.70;101527.28;3141819;28;19977;-69
2022/03/21 02:21:53;;;;;;;;;;;;;;;2.41;38.53;101533.28;3144204;28;20378;-69
2022/03/21 02:23:31;;;;;;;;;;;;;;;2.42;38.65;101540.16;3142362;28;20401;-69
2022/03/21 02:25:04;;;;;;;;;;;;;;;2.42;38.62;101535.00;3140386;28;19921;-69
2022/03/21 02:26:37;;;;;;;;;;;;;;;2.43;38.47;101535.91;3144623;28;19921;-69
2022/03/21 02:28:10;;;;;;;;;;;;;;;2.21;38.58;101493.53;3144160;28;19936;-68
2022/03/21 02:29:43;;;;;;;;;;;;;;;2.44;38.56;101533.34;3143970;28;20301;-70
2022/03/21 02:31:15;;;;;;;;;;;;;;;2.46;38.53;101531.66;3140835;28;20003;-69
2022/03/21 02:32:47;;;;;;;;;;;;;;;2.46;38.31;101536.81;3144149;28;19928;-69
2022/03/21 02:34:20;;;;;;;;;;;;;;;2.46;38.28;101531.66;3144400;28;19927;-69
2022/03/21 02:35:52;;;;;;;;;;;;;;;2.47;38.21;101533.38;3144226;28;20332;-70
2022/03/21 02:37:24;;;;;;;;;;;;;;;2.49;38.25;101525.72;3142727;28;19927;-69
2022/03/21 02:38:57;;;;;;;;;;;;;;;2.49;38.34;101536.84;3145129;28;20001;-69
2022/03/21 02:40:29;;;;;;;;;;;;;;;2.51;38.23;101529.13;3141029;28;19982;-69
2022/03/21 02:42:02;;;;;;;;;;;;;;;2.52;38.34;101530.03;3144136;28;19920;-69
2022/03/21 02:43:49;;;;;;;;;;;;;;;2.52;38.22;101536.03;3144282;28;20001;-69
2022/03/21 02:45:20;;;;;;;;;;;;;;;2.53;38.06;101540.31;3145063;28;19928;-71
2022/03/21 02:46:52;;;;;;;;;;;;;;;2.54;38.23;101543.75;3144227;28;19927;-72
2022/03/21 02:48:24;;;;;;;;;;;;;;;2.50;38.06;101538.56;3144649;28;19985;-72
2022/03/21 02:49:55;;;;;;;;;;;;;;;2.52;38.11;101538.59;3144166;28;20382;-72
2022/03/21 02:51:29;;;;;;;;;;;;;;;2.54;38.12;101543.75;3139102;28;19982;-72
2022/03/21 02:53:01;;;;;;;;;;;;;;;2.52;38.19;101542.91;3131811;28;20409;-69
2022/03/21 02:54:33;;;;;;;;;;;;;;;2.52;38.38;101536.03;3142734;28;19924;-69
2022/03/21 02:56:05;;;;;;;;;;;;;;;2.52;38.23;101536.03;3137743;28;19928;-70
2022/03/21 02:57:38;;;;;;;;;;;;;;;2.52;38.18;101538.59;3144223;28;19921;-70
2022/03/21 02:59:10;;;;;;;;;;;;;;;2.52;38.13;101538.59;3144373;28;20348;-69
2022/03/21 03:00:41;;;;;;;;;;;;;;;2.52;38.28;101545.47;3143762;28;19920;-69
2022/03/21 03:02:13;;;;;;;;;;;;;;;2.52;38.15;101546.31;3144516;28;19993;-70
2022/03/21 03:03:44;;;;;;;;;;;;;;;2.52;38.17;101542.91;3145197;28;20390;-70
2022/03/21 03:05:16;;;;;;;;;;;;;;;2.51;38.22;101544.56;3144356;28;19925;-70
2022/03/21 03:06:48;;;;;;;;;;;;;;;2.52;38.16;101540.31;3144108;28;19970;-70
2022/03/21 03:08:19;;;;;;;;;;;;;;;2.52;38.27;101540.31;3144263;28;20386;-70
2022/03/21 03:09:51;;;;;;;;;;;;;;;2.50;38.11;101541.13;3144410;28;19940;-70
2022/03/21 03:11:23;;;;;;;;;;;;;;;2.49;38.18;101538.56;3145905;28;19921;-70
2022/03/21 03:12:56;;;;;;;;;;;;;;;2.49;38.19;101543.72;3134600;28;19951;-70
2022/03/21 03:14:27;;;;;;;;;;;;;;;2.48;38.16;101541.94;3140849;28;19925;-69
2022/03/21 03:15:59;;;;;;;;;;;;;;;2.46;38.27;101541.94;3146898;28;19927;-69
2022/03/21 03:17:30;;;;;;;;;;;;;;;2.43;38.20;101544.47;3146194;28;20455;-70
2022/03/21 03:19:02;;;;;;;;;;;;;;;2.41;38.20;101535.84;3150361;28;19962;-69
2022/03/21 03:20:34;;;;;;;;;;;;;;;2.41;38.23;101540.13;3135696;28;19993;-70
2022/03/21 03:22:05;;;;;;;;;;;;;;;2.37;38.25;101536.66;3149315;28;19923;-68
2022/03/21 03:23:39;;;;;;;;;;;;;;;2.35;38.30;101530.63;3138675;28;19964;-70
2022/03/21 03:25:11;;;;;;;;;;;;;;;2.33;38.29;101528.84;3146113;28;19931;-70
2022/03/21 03:26:43;;;;;;;;;;;;;;;2.31;38.40;101531.41;3145933;28;19973;-70
2022/03/21 03:28:16;;;;;;;;;;;;;;;2.29;38.36;101530.53;3145702;28;20374;-71
2022/03/21 03:29:47;;;;;;;;;;;;;;;2.27;38.29;101532.19;3146794;28;20339;-70
2022/03/21 03:31:19;;;;;;;;;;;;;;;2.24;38.22;101529.56;3145431;28;19921;-70
2022/03/21 03:32:51;;;;;;;;;;;;;;;2.21;38.41;101535.53;3146540;28;19943;-71
2022/03/21 03:34:22;;;;;;;;;;;;;;;2.19;38.26;101526.94;3139033;28;19967;-70
2022/03/21 03:35:54;;;;;;;;;;;;;;;2.17;38.25;101532.88;3146147;28;19983;-71
2022/03/21 03:37:26;;;;;;;;;;;;;;;2.14;38.29;101526.00;3146315;28;20347;-72
2022/03/21 03:38:58;;;;;;;;;;;;;;;2.12;38.31;101534.50;3146922;28;19927;-71
2022/03/21 03:40:29;;;;;;;;;;;;;;;2.10;38.46;101533.59;3145253;28;19920;-71
2022/03/21 03:42:01;;;;;;;;;;;;;;;2.05;38.35;101516.41;3146704;28;19928;-74
2022/03/21 03:43:35;;;;;;;;;;;;;;;2.03;38.42;101523.22;3140793;28;19921;-73
2022/03/21 03:45:08;;;;;;;;;;;;;;;2.00;38.42;101518.03;3142762;28;19950;-71
2022/03/21 03:46:39;;;;;;;;;;;;;;;2.00;38.49;101524.88;3146006;28;19943;-72
2022/03/21 03:48:11;;;;;;;;;;;;;;;1.96;38.61;101515.41;3143169;28;19924;-72
2022/03/21 03:49:43;;;;;;;;;;;;;;;1.92;38.52;101517.03;3146634;28;20458;-71
2022/03/21 03:51:15;;;;;;;;;;;;;;;1.89;38.45;101522.09;3145785;28;19982;-71
2022/03/21 03:52:47;;;;;;;;;;;;;;;1.87;38.71;101521.25;3149869;28;19920;-70
2022/03/21 03:54:18;;;;;;;;;;;;;;;1.84;38.49;101518.63;3134310;28;20373;-69
2022/03/21 03:55:50;;;;;;;;;;;;;;;1.80;38.82;101510.00;3142734;28;20325;-71
2022/03/21 03:57:22;;;;;;;;;;;;;;;1.78;38.86;101513.38;3140753;28;19932;-70
2022/03/21 03:58:55;;;;;;;;;;;;;;;1.75;38.72;101518.44;3143986;28;20331;-72
2022/03/21 04:00:26;;;;;;;;;;;;;;;1.72;38.76;101523.53;3139381;28;19921;-72
2022/03/21 04:01:58;;;;;;;;;;;;;;;1.69;38.87;101513.22;3145505;28;19927;-72
2022/03/21 04:03:47;;;;;;;;;;;;;;;1.66;39.06;101516.56;3146598;28;19966;-72
2022/03/21 04:05:18;;;;;;;;;;;;;;;1.63;38.95;101520.75;3145680;28;19924;-71
2022/03/21 04:06:50;;;;;;;;;;;;;;;1.60;39.08;101521.59;3146456;28;19924;-72
2022/03/21 04:08:20;;;;;;;;;;;;;;;1.56;39.40;101523.22;3145272;28;19920;-70
2022/03/21 04:09:52;;;;;;;;;;;;;;;1.54;39.15;101518.91;3152159;28;19971;-72
2022/03/21 04:11:23;;;;;;;;;;;;;;;1.52;39.32;101515.44;3139450;28;20023;-69
2022/03/21 04:12:55;;;;;;;;;;;;;;;1.50;39.55;101522.25;3145801;28;19929;-69
2022/03/21 04:14:28;;;;;;;;;;;;;;;1.47;39.47;101517.91;3145777;28;20310;-69
2022/03/21 04:16:06;;;;;;;;;;;;;;;1.47;39.56;101512.78;3142929;28;19924;-69
2022/03/21 04:17:38;;;;;;;;;;;;;;;1.45;39.34;101508.44;3133999;28;19936;-68
2022/03/21 04:19:09;;;;;;;;;;;;;;;1.44;39.55;101510.16;3143906;28;19920;-69
2022/03/21 04:20:41;;;;;;;;;;;;;;;1.42;39.53;101509.28;3141354;28;19921;-69
2022/03/21 04:22:13;;;;;;;;;;;;;;;1.40;39.78;101505.81;3139891;28;19927;-69
2022/03/21 04:23:44;;;;;;;;;;;;;;;1.39;39.51;101505.75;3146568;28;19929;-69
2022/03/21 04:25:16;;;;;;;;;;;;;;;1.38;39.90;101507.47;3145214;28;20029;-69
2022/03/21 04:26:47;;;;;;;;;;;;;;;1.38;39.87;101506.59;3146075;28;19923;-69
2022/03/21 04:28:19;;;;;;;;;;;;;;;1.38;39.65;101501.47;3145393;28;20002;-69
2022/03/21 04:29:52;;;;;;;;;;;;;;;1.38;39.81;101512.59;3144668;28;20317;-69
2022/03/21 04:31:24;;;;;;;;;;;;;;;1.38;39.86;101502.31;3145412;28;19921;-69
2022/03/21 04:32:56;;;;;;;;;;;;;;;1.38;39.94;101507.47;3146797;28;20057;-69
2022/03/21 04:34:27;;;;;;;;;;;;;;;1.38;39.95;101502.31;3144459;28;19928;-69
2022/03/21 04:35:59;;;;;;;;;;;;;;;1.39;40.04;101504.09;3142470;28;19920;-69
2022/03/21 04:37:30;;;;;;;;;;;;;;;1.41;40.10;101499.81;3146381;28;19924;-70
2022/03/21 04:39:03;;;;;;;;;;;;;;;1.42;39.91;101509.28;3140346;28;19924;-70
2022/03/21 04:40:35;;;;;;;;;;;;;;;1.44;40.09;101507.59;3144322;28;19924;-71
2022/03/21 04:42:07;;;;;;;;;;;;;;;1.46;39.99;101502.50;3142367;28;19924;-70
2022/03/21 04:43:38;;;;;;;;;;;;;;;1.48;40.09;101500.78;3145472;28;20449;-70
2022/03/21 04:45:11;;;;;;;;;;;;;;;1.49;40.14;101499.97;3144933;28;19996;-69
2022/03/21 04:46:43;;;;;;;;;;;;;;;1.52;40.04;101506.03;3143614;28;19921;-70
2022/03/21 04:48:15;;;;;;;;;;;;;;;1.56;39.90;101502.69;3145113;28;19924;-69
2022/03/21 04:49:47;;;;;;;;;;;;;;;1.62;39.86;101511.34;3145885;28;19932;-70
2022/03/21 04:51:19;;;;;;;;;;;;;;;1.65;39.88;101512.25;3144209;28;20067;-70
2022/03/21 04:52:51;;;;;;;;;;;;;;;1.70;39.97;101507.22;3142032;28;20287;-70
2022/03/21 04:54:22;;;;;;;;;;;;;;;1.74;39.85;101512.41;3144000;28;19985;-70
2022/03/21 04:55:54;;;;;;;;;;;;;;;1.80;39.79;101511.66;3144839;28;19920;-71
2022/03/21 04:57:25;;;;;;;;;;;;;;;1.84;39.83;101505.78;3144853;28;19924;-71
2022/03/21 04:58:56;;;;;;;;;;;;;;;1.89;39.64;101516.97;3137185;28;19997;-70
2022/03/21 05:00:30;;;;;;;;;;;;;;;1.93;39.79;101513.63;3144585;28;20073;-71
2022/03/21 05:02:01;;;;;;;;;;;;;;;1.99;39.62;101521.44;3145127;28;20369;-70
2022/03/21 05:03:33;;;;;;;;;;;;;;;2.04;39.66;101521.50;3146154;28;20043;-70
2022/03/21 05:05:05;;;;;;;;;;;;;;;2.09;39.51;101519.03;3144438;28;19973;-70
2022/03/21 05:06:37;;;;;;;;;;;;;;;2.13;39.52;101520.81;3145888;28;19920;-70
2022/03/21 05:08:08;;;;;;;;;;;;;;;2.16;39.45;101524.31;3144941;28;20259;-70
2022/03/21 05:09:39;;;;;;;;;;;;;;;2.21;39.56;101524.38;3145039;28;19924;-69
2022/03/21 05:11:11;;;;;;;;;;;;;;;2.24;39.49;101529.56;3144897;28;20381;-69
2022/03/21 05:12:42;;;;;;;;;;;;;;;2.27;39.39;101527.06;3139029;28;19921;-69
2022/03/21 05:14:14;;;;;;;;;;;;;;;2.33;39.32;101514.28;3145533;28;20019;-69
2022/03/21 05:15:47;;;;;;;;;;;;;;;2.21;39.46;101490.97;3145267;28;19928;-69
2022/03/21 05:17:19;;;;;;;;;;;;;;;2.41;39.41;101517.84;3145440;28;19931;-69
2022/03/21 05:18:51;;;;;;;;;;;;;;;2.47;39.25;101520.53;3144329;28;19924;-70
2022/03/21 05:20:22;;;;;;;;;;;;;;;2.52;39.38;101520.59;3144735;28;19921;-69
2022/03/21 05:21:54;;;;;;;;;;;;;;;2.55;39.32;101515.50;3145060;28;20010;-69
2022/03/21 05:31:01;;;;;;;;;;;;;;;2.89;39.00;101541.72;3111783;28;20453;-70
2022/03/21 05:32:33;;;;;;;;;;;;;;;2.93;38.93;101544.38;3129250;28;20257;-70
2022/03/21 05:35:55;;;;;;;;;;;;;;;2.99;38.82;101550.41;3135852;28;19924;-70
2022/03/21 05:37:26;;;;;;;;;;;;;;;3.01;38.78;101541.88;3135378;28;19989;-70
2022/03/21 05:38:58;;;;;;;;;;;;;;;3.07;38.77;101551.41;3129065;28;19924;-70
2022/03/21 05:40:34;;;;;;;;;;;;;;;3.12;38.70;101549.75;3130611;28;20219;-70
2022/03/21 05:42:06;;;;;;;;;;;;;;;3.20;38.65;101550.72;3134742;28;20541;-69
2022/03/21 05:43:38;;;;;;;;;;;;;;;3.27;38.70;101549.09;3134562;28;20407;-69
2022/03/21 05:45:10;;;;;;;;;;;;;;;3.34;38.47;101556.94;3136083;28;20234;-70
2022/03/21 05:46:44;;;;;;;;;;;;;;;3.40;38.49;101556.13;3134880;28;20702;-71
2022/03/21 05:50:09;;;;;;;;;;;;;;;3.55;38.24;101555.44;3133408;28;20365;-69
2022/03/21 05:51:41;;;;;;;;;;;;;;;3.63;38.08;101558.97;3135307;28;19925;-69
2022/03/21 05:53:12;;;;;;;;;;;;;;;3.70;37.99;101565.94;3134255;28;19931;-70
2022/03/21 05:54:44;;;;;;;;;;;;;;;3.62;37.95;101528.91;3134884;28;20389;-70
2022/03/21 05:56:16;;;;;;;;;;;;;;;3.85;37.99;101560.94;3139900;28;20000;-70
2022/03/21 05:57:49;;;;;;;;;;;;;;;3.94;37.79;101567.91;3129363;28;20377;-72
2022/03/21 06:01:24;;;;;;;;;;;;;;;4.12;37.58;101569.81;3084826;28;19965;-70
2022/03/21 06:02:58;;;;;;;;;;;;;;;4.21;37.37;101563.88;3084074;28;20072;-71
2022/03/21 06:04:29;;;;;;;;;;;;;;;4.31;37.34;101565.69;3079831;28;20008;-71
2022/03/21 06:06:01;;;;;;;;;;;;;;;4.40;37.11;101565.75;3084787;28;19926;-70
2022/03/21 06:07:33;;;;;;;;;;;;;;;4.49;37.10;101576.13;3130146;28;20399;-69
2022/03/21 06:09:04;;;;;;;;;;;;;;;4.66;36.94;101571.13;3136082;28;20015;-69
2022/03/21 06:10:37;;;;;;;;;;;;;;;4.82;36.88;101566.06;3133157;28;20018;-68
2022/03/21 06:12:09;;;;;;;;;;;;;;;5.04;36.67;101569.66;3134951;28;19930;-68
2022/03/21 06:13:43;;;;;;;;;;;;;;;5.57;36.60;101563.91;3134495;28;20259;-69
2022/03/21 06:15:15;;;;;;;;;;;;;;;6.70;36.00;101563.22;3134620;28;20003;-69
2022/03/21 06:16:50;;;;;;;;;;;;;;;8.11;35.40;101566.13;3133973;28;19958;-69
2022/03/21 06:18:23;;;;;;;;;;;;;;;9.62;34.19;101560.34;3135553;28;19925;-69
2022/03/21 06:19:54;;;;;;;;;;;;;;;11.04;32.78;101554.63;3128670;28;20138;-69
2022/03/21 06:21:27;;;;;;;;;;;;;;;12.38;31.53;101560.41;3136093;28;20011;-69
2022/03/21 06:22:59;;;;;;;;;;;;;;;13.64;30.44;101552.66;3123863;28;20120;-70
2022/03/21 06:24:31;;;;;;;;;;;;;;;14.83;29.16;101552.34;3133812;28;20436;-69
2022/03/21 06:26:03;;;;;;;;;;;;;;;15.91;27.98;101549.22;3134902;28;20460;-68
2022/03/21 06:27:37;;;;;;;;;;;;;;;16.94;26.98;101555.50;3135475;28;20540;-69
2022/03/21 06:29:09;;;;;;;;;;;;;;;17.91;25.87;101547.56;3135922;28;20277;-68
2022/03/21 06:30:44;;;;;;;;;;;;;;;18.78;24.69;101552.06;3135551;28;19946;-70
2022/03/21 06:32:16;;;;;;;;;;;;;;;19.69;23.92;101558.69;3139242;28;19928;-70
2022/03/21 06:33:52;;;;;;;;;;;;;;;20.55;23.31;101549.38;3127010;28;20562;-70
2022/03/21 06:35:24;;;;;;;;;;;;;;;21.37;22.18;101544.47;3131252;28;19989;-70
2022/03/21 06:36:56;;;;;;;;;;;;;;;22.14;21.35;101546.53;3132832;28;20040;-70
2022/03/21 06:38:28;;;;;;;;;;;;;;;22.89;20.72;101545.91;3136432;28;20409;-71
2022/03/21 06:40:00;;;;;;;;;;;;;;;23.56;20.05;101545.66;3134912;28;20280;-70
2022/03/21 06:41:32;;;;;;;;;;;;;;;24.11;19.25;101541.66;3136372;28;20440;-68
2022/03/21 06:43:03;;;;;;;;;;;;;;;24.61;18.85;101542.31;3134984;28;19924;-70
2022/03/21 06:44:35;;;;;;;;;;;;;;;25.03;18.27;101539.94;3134335;28;20499;-68
2022/03/21 06:46:07;;;;;;;;;;;;;;;25.43;17.43;101532.31;3133036;28;20363;-69
2022/03/21 06:47:38;;;;;;;;;;;;;;;25.80;17.00;101540.00;3137508;28;20385;-69
2022/03/21 06:49:11;;;;;;;;;;;;;;;26.19;16.97;101539.53;3136799;28;19932;-70
2022/03/21 06:50:43;;;;;;;;;;;;;;;26.51;16.44;101537.69;3137448;28;19924;-70
2022/03/21 06:52:16;;;;;;;;;;;;;;;26.80;16.13;101538.81;3136850;28;19932;-68
2022/03/21 06:53:48;;;;;;;;;;;;;;;26.95;15.60;101516.13;3139669;28;19928;-69
2022/03/21 06:55:20;;;;;;;;;;;;;;;27.29;15.60;101532.75;3138977;28;20228;-72
2022/03/21 06:56:52;;;;;;;;;;;;;;;27.51;14.93;101537.06;3124842;28;19925;-75
2022/03/21 06:58:24;;;;;;;;;;;;;;;27.77;14.92;101544.53;3137087;28;19935;-72
2022/03/21 06:59:56;;;;;;;;;;;;;;;28.07;14.61;101532.91;3137659;28;20773;-71
2022/03/21 07:01:27;;;;;;;;;;;;;;;28.34;14.54;101535.72;3135191;28;19986;-76
2022/03/21 07:02:59;;;;;;;;;;;;;;;28.51;13.92;101539.50;3136769;28;20477;-76
2022/03/21 07:04:32;;;;;;;;;;;;;;;28.69;13.89;101534.28;3136531;28;19924;-78
2022/03/21 07:06:04;;;;;;;;;;;;;;;28.79;13.69;101529.72;3138158;28;19964;-78
2022/03/21 07:07:36;;;;;;;;;;;;;;;28.88;13.49;101532.53;3137870;28;20364;-74
2022/03/21 07:09:08;;;;;;;;;;;;;;;28.98;13.42;101534.16;3138407;28;20659;-70
2022/03/21 07:10:41;;;;;;;;;;;;;;;29.12;13.16;101523.97;3130664;28;20393;-74
2022/03/21 07:12:12;;;;;;;;;;;;;;;29.28;12.96;101523.31;3140492;28;20376;-73
2022/03/21 07:13:44;;;;;;;;;;;;;;;29.36;12.89;101526.13;3130606;28;19976;-74
2022/03/21 07:15:16;;;;;;;;;;;;;;;29.38;12.76;101526.81;3136820;28;20642;-75
2022/03/21 07:16:48;;;;;;;;;;;;;;;29.44;12.84;101520.84;3136875;28;19931;-75
2022/03/21 07:18:20;;;;;;;;;;;;;;;29.24;12.57;101495.97;3133704;28;19928;-73
2022/03/21 07:20:09;;;;;;;;;;;;;;;29.15;12.65;101521.84;3135676;28;20180;-73
2022/03/21 07:21:42;;;;;;;;;;;;;;;29.02;12.82;101526.72;3142476;28;20255;-74
2022/03/21 07:23:14;;;;;;;;;;;;;;;28.94;12.42;101526.56;3146345;28;19932;-75
2022/03/21 07:24:45;;;;;;;;;;;;;;;28.77;12.44;101518.28;3145249;28;19930;-75
2022/03/21 07:26:17;;;;;;;;;;;;;;;28.64;12.40;101527.66;3145194;28;20007;-77
2022/03/21 07:27:49;;;;;;;;;;;;;;;28.29;12.33;101521.06;3145965;28;19927;-78
2022/03/21 07:29:21;;;;;;;;;;;;;;;27.92;12.60;101519.06;3146806;28;20528;-77
2022/03/21 07:30:52;;;;;;;;;;;;;;;27.64;12.94;101518.06;3145353;28;19975;-78
2022/03/21 07:32:24;;;;;;;;;;;;;;;27.31;12.67;101516.56;3144757;28;19935;-76
2022/03/21 07:33:56;;;;;;;;;;;;;;;26.80;12.47;101518.31;3142934;28;19933;-76
2022/03/21 07:35:27;;;;;;;;;;;;;;;26.34;12.60;101506.19;3141413;28;19975;-71
2022/03/21 07:37:07;;;;;;;;;;;;;;;26.07;12.72;101510.19;3144856;28;19928;-79
2022/03/21 07:38:38;;;;;;;;;;;;;;;25.82;13.34;101513.22;3145123;28;19978;-84
2022/03/21 07:40:11;;;;;;;;;;;;;;;25.54;13.00;101515.44;3143064;28;19974;-74
2022/03/21 07:41:43;;;;;;;;;;;;;;;25.16;13.45;101505.19;3144985;28;19930;-74
2022/03/21 07:43:14;;;;;;;;;;;;;;;24.75;13.72;101511.94;3145369;28;19928;-73
2022/03/21 07:48:25;;;;;;;;;;;;;;;23.33;13.83;101510.91;3144816;28;19924;-75
2022/03/21 07:49:57;;;;;;;;;;;;;;;22.85;14.12;101508.09;3144948;28;20393;-73
2022/03/21 07:51:45;;;;;;;;;;;;;;;22.46;14.33;101499.28;3146117;28;20356;-70
2022/03/21 07:53:18;;;;;;;;;;;;;;;21.49;14.43;101504.78;3143217;28;20030;-71
2022/03/21 07:54:53;;;;;;;;;;;;;;;20.64;14.64;101501.16;3144937;28;19924;-71
2022/03/21 07:56:25;;;;;;;;;;;;;;;19.72;15.01;101506.50;3142934;28;19982;-71
2022/03/21 07:57:56;;;;;;;;;;;;;;;19.29;15.27;101502.75;3142065;28;19920;-71
2022/03/21 07:59:28;;;;;;;;;;;;;;;18.95;15.67;101508.97;3144450;28;19925;-71
2022/03/21 08:01:00;;;;;;;;;;;;;;;18.69;15.89;101503.22;3143836;28;20375;-71
2022/03/21 08:02:34;;;;;;;;;;;;;;;18.37;15.94;101507.53;3143860;28;19924;-71
2022/03/21 08:04:06;;;;;;;;;;;;;;;17.85;16.16;101510.09;3144142;28;19932;-71
2022/03/21 08:05:38;;;;;;;;;;;;;;;17.07;16.54;101506.69;3137991;28;20510;-70
2022/03/21 08:07:09;;;;;;;;;;;;;;;16.77;16.91;101508.88;3143572;28;20240;-71
2022/03/21 08:08:42;;;;;;;;;;;;;;;16.66;17.16;101497.97;3144388;28;19927;-71
2022/03/21 08:10:15;;;;;;;;;;;;;;;16.53;17.11;101501.13;3143584;28;19932;-70
2022/03/21 08:11:47;;;;;;;;;;;;;;;16.41;17.42;101501.63;3143981;28;19972;-70
2022/03/21 08:13:19;;;;;;;;;;;;;;;16.18;17.38;101507.00;3143968;28;19924;-69
2022/03/21 08:14:51;;;;;;;;;;;;;;;15.91;17.33;101501.94;3144058;28;19924;-69
2022/03/21 08:16:23;;;;;;;;;;;;;;;15.64;17.64;101506.50;3143304;28;20377;-70
2022/03/21 08:17:56;;;;;;;;;;;;;;;15.42;17.92;101503.84;3144667;28;19921;-70
2022/03/21 08:19:28;;;;;;;;;;;;;;;15.29;18.04;101503.44;3146315;28;20047;-71